Portada
METAR-TAF:

METAR-TAF

Aeroports :

Orsk, Rússia

latitud: 51-04-18N, longitud: 058-35-48E, altitud: 277 m

Observació

L'informe es va fer fa 47 minuts, a les 01:00 UTC
Vent 6 kt del Oest/Nord-Oest
Temperatura -19°C
Humitat 70%
Pressió 1023 hPa
Visibilitat: 8000 m
Cel cobert a una alçada de 900 ft
neu

METAR: UWOR 230100Z 29003MPS 8000 -SN OVC009 M19/M23 Q1023 R25/490237 NOSIG RMK QFE743/0991

Hora: 06:47 (01:47 UTC)

Pronòstic

L'informe es va fer fa 3 hores i 2 minuts, a les 22:45 UTC
Pronòstic vàlid del 23 a les 00 UTC al 23 a les 09 UTC
Vent 6 kt del Oest/Sud-Oest amb ràfegues de 17 kt
Visibilitat: 5000 m
Escasses núvols a una alçada de 500 ft
Cel ennuvolat a una alçada de 1600 ft
neu
Temporalment
l' 23 a les 00 UTC al 23 a les 09 UTC
Vent 10 kt del Oest amb ràfegues de 19 kt
Cel cobert a una alçada de 1100 ft

TAF: UWOR 222245Z 2300/2309 25003G09MPS 5000 -SN FEW005 BKN016 TXM15/2306Z TNM22/2303Z TEMPO 2300/2309 28005G10MPS OVC011

Observacions i pronòstics meteorològics de més de 4000 aeroports (METAR i TAF).

Les estacions disponibles són els punts grocs i vermells al mapa.

Posi el ratolí al punt desitjat per veure el nom de l'estació.

Feu clic per veure les observacions i els pronòstics meteorològics.

Per canviar el mapa: feu clic els botons verds amb una creu de color negre per apropar; al botó verd amb un guió per allunyar la imatge; o en les fletxes verdes per a mapes adjacents.


METAR-TAF: